Time;durP1;ratioP1;P1;durP2;ratioP2;P2;SDS_P1;SDS_P2;PMS_P1;PMS_P2;Temp;Humidity;BMP_temperature;BMP_pressure;BME280_temperature;BME280_humidity;BME280_pressure;Samples;Min_cycle;Max_cycle;Signal;HPM_P1;HPM_P2
2022/11/26 00:00:00;;;;;;;1.7;1.7;;;;;;;5.8;100.0;102350;;;;
2022/11/26 00:01:00;;;;;;;1.7;1.7;;;;;;;5.8;100.0;102350;;;;
2022/11/26 00:02:10;;;;;;;1.7;1.7;;;;;;;5.8;100.0;102350;;;;
2022/11/26 00:03:00;;;;;;;2.3;2.2;;;;;;;5.8;100.0;102350;;;;
2022/11/26 00:04:02;;;;;;;2.3;2.2;;;;;;;5.8;100.0;102350;;;;
2022/11/26 00:05:00;;;;;;;2.3;2.2;;;;;;;5.8;100.0;102360;;;;
2022/11/26 00:06:01;;;;;;;2.3;2.2;;;;;;;5.8;100.0;102360;;;;
2022/11/26 00:07:00;;;;;;;2.3;2.2;;;;;;;5.8;100.0;102360;;;;
2022/11/26 00:08:01;;;;;;;2.3;2.2;;;;;;;5.8;100.0;102360;;;;
2022/11/26 00:09:00;;;;;;;2.3;2.2;;;;;;;5.8;100.0;102360;;;;
2022/11/26 00:10:00;;;;;;;2.3;2.2;;;;;;;5.8;100.0;102360;;;;
2022/11/26 00:11:00;;;;;;;2.3;2.2;;;;;;;5.7;100.0;102360;;;;
2022/11/26 00:12:00;;;;;;;2.3;2.2;;;;;;;5.7;100.0;102360;;;;
2022/11/26 00:13:00;;;;;;;2.3;2.2;;;;;;;5.7;100.0;102370;;;;
2022/11/26 00:14:00;;;;;;;2.3;2.2;;;;;;;5.7;100.0;102370;;;;
2022/11/26 00:15:09;;;;;;;2.3;2.2;;;;;;;5.8;100.0;102370;;;;
2022/11/26 00:16:00;;;;;;;2.3;2.2;;;;;;;5.8;100.0;102370;;;;
2022/11/26 00:17:00;;;;;;;2.3;2.2;;;;;;;5.7;100.0;102370;;;;
2022/11/26 00:18:00;;;;;;;2.3;2.2;;;;;;;5.7;100.0;102370;;;;
2022/11/26 00:19:00;;;;;;;2.3;2.2;;;;;;;5.6;100.0;102380;;;;
2022/11/26 00:20:00;;;;;;;2.3;2.2;;;;;;;5.6;100.0;102380;;;;
2022/11/26 00:21:00;;;;;;;2.3;2.2;;;;;;;5.7;100.0;102370;;;;
2022/11/26 00:22:00;;;;;;;2.3;2.2;;;;;;;5.7;100.0;102370;;;;
2022/11/26 00:23:02;;;;;;;1.7;1.7;;;;;;;5.7;100.0;102370;;;;
2022/11/26 00:24:01;;;;;;;1.7;1.7;;;;;;;5.7;100.0;102370;;;;
2022/11/26 00:25:00;;;;;;;1.7;1.7;;;;;;;5.7;100.0;102380;;;;
2022/11/26 00:26:01;;;;;;;1.7;1.7;;;;;;;5.7;100.0;102380;;;;
2022/11/26 00:27:00;;;;;;;1.7;1.7;;;;;;;5.6;100.0;102380;;;;
2022/11/26 00:28:00;;;;;;;1.7;1.7;;;;;;;5.6;100.0;102380;;;;
2022/11/26 00:29:00;;;;;;;1.7;1.7;;;;;;;5.6;100.0;102370;;;;
2022/11/26 00:30:00;;;;;;;1.7;1.7;;;;;;;5.6;100.0;102370;;;;
2022/11/26 00:31:02;;;;;;;1.7;1.7;;;;;;;5.6;100.0;102380;;;;
2022/11/26 00:32:00;;;;;;;1.7;1.7;;;;;;;5.6;100.0;102380;;;;
2022/11/26 00:33:00;;;;;;;1.7;1.7;;;;;;;5.5;100.0;102380;;;;
2022/11/26 00:34:00;;;;;;;1.7;1.7;;;;;;;5.5;100.0;102380;;;;
2022/11/26 00:35:00;;;;;;;1.7;1.7;;;;;;;5.6;100.0;102380;;;;
2022/11/26 00:36:10;;;;;;;1.7;1.7;;;;;;;5.6;100.0;102380;;;;
2022/11/26 00:37:00;;;;;;;1.7;1.7;;;;;;;5.5;100.0;102380;;;;
2022/11/26 00:38:00;;;;;;;1.7;1.7;;;;;;;5.5;100.0;102380;;;;
2022/11/26 00:39:01;;;;;;;1.7;1.7;;;;;;;5.4;100.0;102370;;;;
2022/11/26 00:40:00;;;;;;;1.7;1.7;;;;;;;5.4;100.0;102370;;;;
2022/11/26 00:41:00;;;;;;;1.7;1.7;;;;;;;5.5;100.0;102380;;;;
2022/11/26 00:42:00;;;;;;;1.7;1.7;;;;;;;5.5;100.0;102380;;;;
2022/11/26 00:43:02;;;;;;;1.8;1.8;;;;;;;5.5;100.0;102380;;;;
2022/11/26 00:44:00;;;;;;;1.8;1.8;;;;;;;5.5;100.0;102380;;;;
2022/11/26 00:45:00;;;;;;;1.8;1.8;;;;;;;5.5;100.0;102380;;;;
2022/11/26 00:46:00;;;;;;;1.8;1.8;;;;;;;5.5;100.0;102380;;;;
2022/11/26 00:47:00;;;;;;;1.8;1.8;;;;;;;5.4;100.0;102380;;;;
2022/11/26 00:48:01;;;;;;;1.8;1.8;;;;;;;5.4;100.0;102380;;;;
2022/11/26 00:49:00;;;;;;;1.8;1.8;;;;;;;5.3;100.0;102370;;;;
2022/11/26 00:50:00;;;;;;;1.8;1.8;;;;;;;5.3;100.0;102370;;;;
2022/11/26 00:51:00;;;;;;;1.8;1.8;;;;;;;5.3;100.0;102380;;;;
2022/11/26 00:52:00;;;;;;;1.8;1.8;;;;;;;5.3;100.0;102380;;;;
2022/11/26 00:53:00;;;;;;;1.8;1.8;;;;;;;5.4;100.0;102370;;;;
2022/11/26 00:54:01;;;;;;;1.8;1.8;;;;;;;5.4;100.0;102370;;;;
2022/11/26 00:55:05;;;;;;;1.8;1.8;;;;;;;5.3;100.0;102380;;;;
2022/11/26 00:56:00;;;;;;;1.8;1.8;;;;;;;5.3;100.0;102380;;;;
2022/11/26 00:57:00;;;;;;;1.8;1.8;;;;;;;5.2;100.0;102380;;;;
2022/11/26 00:58:00;;;;;;;1.8;1.8;;;;;;;5.2;100.0;102380;;;;
2022/11/26 00:59:00;;;;;;;1.8;1.8;;;;;;;5.2;100.0;102380;;;;
2022/11/26 01:00:00;;;;;;;1.8;1.8;;;;;;;5.2;100.0;102380;;;;
2022/11/26 01:01:00;;;;;;;1.8;1.8;;;;;;;5.2;100.0;102380;;;;
2022/11/26 01:02:00;;;;;;;1.8;1.8;;;;;;;5.2;100.0;102380;;;;
2022/11/26 01:03:00;;;;;;;1.9;1.9;;;;;;;5.2;100.0;102380;;;;
2022/11/26 01:04:00;;;;;;;1.9;1.9;;;;;;;5.2;100.0;102380;;;;
2022/11/26 01:05:00;;;;;;;1.9;1.9;;;;;;;5.2;100.0;102380;;;;
2022/11/26 01:06:00;;;;;;;1.9;1.9;;;;;;;5.2;100.0;102380;;;;
2022/11/26 01:07:00;;;;;;;1.9;1.9;;;;;;;5.1;100.0;102390;;;;
2022/11/26 01:08:01;;;;;;;1.9;1.9;;;;;;;5.1;100.0;102390;;;;
2022/11/26 01:09:00;;;;;;;1.9;1.9;;;;;;;5.2;100.0;102390;;;;
2022/11/26 01:10:00;;;;;;;1.9;1.9;;;;;;;5.2;100.0;102390;;;;
2022/11/26 01:11:01;;;;;;;1.9;1.9;;;;;;;5.2;100.0;102390;;;;
2022/11/26 01:12:00;;;;;;;1.9;1.9;;;;;;;5.2;100.0;102390;;;;
2022/11/26 01:13:00;;;;;;;1.9;1.9;;;;;;;5.2;100.0;102390;;;;
2022/11/26 01:14:00;;;;;;;1.9;1.9;;;;;;;5.2;100.0;102390;;;;
2022/11/26 01:15:00;;;;;;;1.9;1.9;;;;;;;5.2;100.0;102390;;;;
2022/11/26 01:16:01;;;;;;;1.9;1.9;;;;;;;5.2;100.0;102390;;;;
2022/11/26 01:17:00;;;;;;;1.9;1.9;;;;;;;5.1;100.0;102400;;;;
2022/11/26 01:18:00;;;;;;;1.9;1.9;;;;;;;5.1;100.0;102400;;;;
2022/11/26 01:19:01;;;;;;;1.9;1.9;;;;;;;5.1;100.0;102400;;;;
2022/11/26 01:20:00;;;;;;;1.9;1.9;;;;;;;5.1;100.0;102400;;;;
2022/11/26 01:21:00;;;;;;;1.9;1.9;;;;;;;5.1;100.0;102400;;;;
2022/11/26 01:22:00;;;;;;;1.9;1.9;;;;;;;5.1;100.0;102400;;;;
2022/11/26 01:23:00;;;;;;;3.8;3.5;;;;;;;5.1;100.0;102400;;;;
2022/11/26 01:24:00;;;;;;;3.8;3.5;;;;;;;5.1;100.0;102400;;;;
2022/11/26 01:25:00;;;;;;;3.8;3.5;;;;;;;5.1;100.0;102400;;;;
2022/11/26 01:26:06;;;;;;;3.8;3.5;;;;;;;5.1;100.0;102400;;;;
2022/11/26 01:27:00;;;;;;;3.8;3.5;;;;;;;5.0;100.0;102400;;;;
2022/11/26 01:28:00;;;;;;;3.8;3.5;;;;;;;5.0;100.0;102400;;;;
2022/11/26 01:29:00;;;;;;;3.8;3.5;;;;;;;5.0;100.0;102400;;;;
2022/11/26 01:30:00;;;;;;;3.8;3.5;;;;;;;5.0;100.0;102400;;;;
2022/11/26 01:31:00;;;;;;;3.8;3.5;;;;;;;5.0;100.0;102390;;;;
2022/11/26 01:32:00;;;;;;;3.8;3.5;;;;;;;5.0;100.0;102390;;;;
2022/11/26 01:33:00;;;;;;;3.8;3.5;;;;;;;5.0;100.0;102390;;;;
2022/11/26 01:34:00;;;;;;;3.8;3.5;;;;;;;5.0;100.0;102390;;;;
2022/11/26 01:35:00;;;;;;;3.8;3.5;;;;;;;5.1;100.0;102390;;;;
2022/11/26 01:36:00;;;;;;;3.8;3.5;;;;;;;5.1;100.0;102390;;;;
2022/11/26 01:37:00;;;;;;;3.8;3.5;;;;;;;5.1;100.0;102390;;;;
2022/11/26 01:38:00;;;;;;;3.8;3.5;;;;;;;5.1;100.0;102390;;;;
2022/11/26 01:39:01;;;;;;;3.8;3.5;;;;;;;5.1;100.0;102390;;;;
2022/11/26 01:40:00;;;;;;;3.8;3.5;;;;;;;5.1;100.0;102390;;;;
2022/11/26 01:41:10;;;;;;;3.8;3.5;;;;;;;5.0;100.0;102390;;;;
2022/11/26 01:42:00;;;;;;;3.8;3.5;;;;;;;5.0;100.0;102390;;;;
2022/11/26 01:43:10;;;;;;;2.2;2.2;;;;;;;5.0;100.0;102390;;;;
2022/11/26 01:44:00;;;;;;;2.2;2.2;;;;;;;5.0;100.0;102390;;;;
2022/11/26 01:45:00;;;;;;;2.2;2.2;;;;;;;5.0;100.0;102390;;;;
2022/11/26 01:46:00;;;;;;;2.2;2.2;;;;;;;5.0;100.0;102390;;;;
2022/11/26 01:47:00;;;;;;;2.2;2.2;;;;;;;4.9;100.0;102390;;;;
2022/11/26 01:48:00;;;;;;;2.2;2.2;;;;;;;4.9;100.0;102390;;;;
2022/11/26 01:49:10;;;;;;;2.2;2.2;;;;;;;4.9;100.0;102390;;;;
2022/11/26 01:50:10;;;;;;;2.2;2.2;;;;;;;4.9;100.0;102390;;;;
2022/11/26 01:51:01;;;;;;;2.2;2.2;;;;;;;4.9;100.0;102400;;;;
2022/11/26 01:52:04;;;;;;;2.2;2.2;;;;;;;4.9;100.0;102400;;;;
2022/11/26 01:53:02;;;;;;;2.2;2.2;;;;;;;4.9;100.0;102400;;;;
2022/11/26 01:54:00;;;;;;;2.2;2.2;;;;;;;4.9;100.0;102400;;;;
2022/11/26 01:55:00;;;;;;;2.2;2.2;;;;;;;4.8;100.0;102400;;;;
2022/11/26 01:56:02;;;;;;;2.2;2.2;;;;;;;4.8;100.0;102400;;;;
2022/11/26 01:57:10;;;;;;;2.2;2.2;;;;;;;4.9;100.0;102400;;;;
2022/11/26 01:58:00;;;;;;;2.2;2.2;;;;;;;4.9;100.0;102400;;;;
2022/11/26 01:59:05;;;;;;;2.2;2.2;;;;;;;4.8;100.0;102400;;;;
2022/11/26 02:00:00;;;;;;;2.2;2.2;;;;;;;4.8;100.0;102400;;;;
2022/11/26 02:01:00;;;;;;;2.2;2.2;;;;;;;4.8;100.0;102400;;;;
2022/11/26 02:02:00;;;;;;;1.8;1.8;;;;;;;4.8;100.0;102400;;;;
2022/11/26 02:03:00;;;;;;;1.8;1.8;;;;;;;4.8;100.0;102400;;;;
2022/11/26 02:04:09;;;;;;;1.8;1.8;;;;;;;4.8;100.0;102400;;;;
2022/11/26 02:05:10;;;;;;;1.8;1.8;;;;;;;4.9;100.0;102400;;;;
2022/11/26 02:06:03;;;;;;;1.8;1.8;;;;;;;4.9;100.0;102400;;;;
2022/11/26 02:07:00;;;;;;;1.8;1.8;;;;;;;4.9;100.0;102400;;;;
2022/11/26 02:08:01;;;;;;;1.8;1.8;;;;;;;4.9;100.0;102400;;;;
2022/11/26 02:09:01;;;;;;;1.8;1.8;;;;;;;4.9;100.0;102410;;;;
2022/11/26 02:10:00;;;;;;;1.8;1.8;;;;;;;4.9;100.0;102410;;;;
2022/11/26 02:11:10;;;;;;;1.8;1.8;;;;;;;4.8;100.0;102400;;;;
2022/11/26 02:12:00;;;;;;;1.8;1.8;;;;;;;4.8;100.0;102400;;;;
2022/11/26 02:13:00;;;;;;;1.8;1.8;;;;;;;4.9;100.0;102400;;;;
2022/11/26 02:14:02;;;;;;;1.8;1.8;;;;;;;4.9;100.0;102400;;;;
2022/11/26 02:15:00;;;;;;;1.8;1.8;;;;;;;4.8;100.0;102410;;;;
2022/11/26 02:16:07;;;;;;;1.8;1.8;;;;;;;4.8;100.0;102410;;;;
2022/11/26 02:17:04;;;;;;;1.8;1.8;;;;;;;4.8;100.0;102410;;;;
2022/11/26 02:18:03;;;;;;;1.8;1.8;;;;;;;4.8;100.0;102410;;;;
2022/11/26 02:19:10;;;;;;;1.8;1.8;;;;;;;4.9;100.0;102410;;;;
2022/11/26 02:20:10;;;;;;;1.8;1.8;;;;;;;4.9;100.0;102410;;;;
2022/11/26 02:21:07;;;;;;;1.8;1.8;;;;;;;4.9;100.0;102420;;;;
2022/11/26 02:22:08;;;;;;;1.7;1.7;;;;;;;4.9;100.0;102420;;;;
2022/11/26 02:23:00;;;;;;;1.7;1.7;;;;;;;4.8;100.0;102420;;;;
2022/11/26 02:24:03;;;;;;;1.7;1.7;;;;;;;4.8;100.0;102420;;;;
2022/11/26 02:25:10;;;;;;;1.7;1.7;;;;;;;4.8;100.0;102420;;;;
2022/11/26 02:26:01;;;;;;;1.7;1.7;;;;;;;4.8;100.0;102420;;;;
2022/11/26 02:27:03;;;;;;;1.7;1.7;;;;;;;4.7;100.0;102420;;;;
2022/11/26 02:28:10;;;;;;;1.7;1.7;;;;;;;4.7;100.0;102420;;;;
2022/11/26 02:29:01;;;;;;;1.7;1.7;;;;;;;4.7;100.0;102430;;;;
2022/11/26 02:30:00;;;;;;;1.7;1.7;;;;;;;4.7;100.0;102430;;;;
2022/11/26 02:31:00;;;;;;;1.7;1.7;;;;;;;4.8;100.0;102430;;;;
2022/11/26 02:32:04;;;;;;;1.7;1.7;;;;;;;4.8;100.0;102430;;;;
2022/11/26 02:33:04;;;;;;;1.7;1.7;;;;;;;4.8;100.0;102440;;;;
2022/11/26 02:34:10;;;;;;;1.7;1.7;;;;;;;4.8;100.0;102440;;;;
2022/11/26 02:35:04;;;;;;;1.7;1.7;;;;;;;4.8;100.0;102440;;;;
2022/11/26 02:36:06;;;;;;;1.7;1.7;;;;;;;4.8;100.0;102440;;;;
2022/11/26 02:37:04;;;;;;;1.7;1.7;;;;;;;4.8;100.0;102440;;;;
2022/11/26 02:38:04;;;;;;;1.7;1.7;;;;;;;4.8;100.0;102440;;;;
2022/11/26 02:39:10;;;;;;;1.7;1.7;;;;;;;4.7;100.0;102450;;;;
2022/11/26 02:40:00;;;;;;;1.7;1.7;;;;;;;4.7;100.0;102450;;;;
2022/11/26 02:41:00;;;;;;;1.7;1.7;;;;;;;4.7;100.0;102440;;;;
2022/11/26 02:42:03;;;;;;;2.1;2.1;;;;;;;4.7;100.0;102440;;;;
2022/11/26 02:43:00;;;;;;;2.1;2.1;;;;;;;4.7;100.0;102440;;;;
2022/11/26 02:44:00;;;;;;;2.1;2.1;;;;;;;4.7;100.0;102440;;;;
2022/11/26 02:45:04;;;;;;;2.1;2.1;;;;;;;4.6;100.0;102440;;;;
2022/11/26 02:46:04;;;;;;;2.1;2.1;;;;;;;4.6;100.0;102440;;;;
2022/11/26 02:47:02;;;;;;;2.1;2.1;;;;;;;4.7;100.0;102440;;;;
2022/11/26 02:48:01;;;;;;;2.1;2.1;;;;;;;4.7;100.0;102440;;;;
2022/11/26 02:49:00;;;;;;;2.1;2.1;;;;;;;4.7;100.0;102430;;;;
2022/11/26 02:50:04;;;;;;;2.1;2.1;;;;;;;4.7;100.0;102430;;;;
2022/11/26 02:51:04;;;;;;;2.1;2.1;;;;;;;4.7;100.0;102430;;;;
2022/11/26 02:52:01;;;;;;;2.1;2.1;;;;;;;4.7;100.0;102430;;;;
2022/11/26 02:53:01;;;;;;;2.1;2.1;;;;;;;4.7;100.0;102430;;;;
2022/11/26 02:54:00;;;;;;;2.1;2.1;;;;;;;4.7;100.0;102430;;;;
2022/11/26 02:55:01;;;;;;;2.1;2.1;;;;;;;4.7;100.0;102430;;;;
2022/11/26 02:56:02;;;;;;;2.1;2.1;;;;;;;4.7;100.0;102430;;;;
2022/11/26 02:57:02;;;;;;;2.1;2.1;;;;;;;4.7;100.0;102430;;;;
2022/11/26 02:58:00;;;;;;;2.1;2.1;;;;;;;4.7;100.0;102430;;;;
2022/11/26 02:59:01;;;;;;;2.1;2.1;;;;;;;4.6;100.0;102440;;;;
2022/11/26 03:00:00;;;;;;;2.1;2.1;;;;;;;4.6;100.0;102440;;;;
2022/11/26 03:01:06;;;;;;;2.1;2.1;;;;;;;4.6;100.0;102450;;;;
2022/11/26 03:02:04;;;;;;;1.9;1.9;;;;;;;4.6;100.0;102450;;;;
2022/11/26 03:03:02;;;;;;;1.9;1.9;;;;;;;4.7;100.0;102450;;;;
2022/11/26 03:04:03;;;;;;;1.9;1.9;;;;;;;4.7;100.0;102450;;;;
2022/11/26 03:05:01;;;;;;;1.9;1.9;;;;;;;4.7;100.0;102450;;;;
2022/11/26 03:06:02;;;;;;;1.9;1.9;;;;;;;4.7;100.0;102450;;;;
2022/11/26 03:07:02;;;;;;;1.9;1.9;;;;;;;4.7;100.0;102460;;;;
2022/11/26 03:08:01;;;;;;;1.9;1.9;;;;;;;4.7;100.0;102460;;;;
2022/11/26 03:09:00;;;;;;;1.9;1.9;;;;;;;4.7;100.0;102460;;;;
2022/11/26 03:10:00;;;;;;;1.9;1.9;;;;;;;4.7;100.0;102460;;;;
2022/11/26 03:11:00;;;;;;;1.9;1.9;;;;;;;4.7;100.0;102460;;;;
2022/11/26 03:12:00;;;;;;;1.9;1.9;;;;;;;4.7;100.0;102460;;;;
2022/11/26 03:13:00;;;;;;;1.9;1.9;;;;;;;4.6;100.0;102460;;;;
2022/11/26 03:14:00;;;;;;;1.9;1.9;;;;;;;4.6;100.0;102460;;;;
2022/11/26 03:15:00;;;;;;;1.9;1.9;;;;;;;4.6;100.0;102460;;;;
2022/11/26 03:16:00;;;;;;;1.9;1.9;;;;;;;4.6;100.0;102460;;;;
2022/11/26 03:17:00;;;;;;;1.9;1.9;;;;;;;4.5;100.0;102460;;;;
2022/11/26 03:18:00;;;;;;;1.9;1.9;;;;;;;4.5;100.0;102460;;;;
2022/11/26 03:19:00;;;;;;;1.9;1.9;;;;;;;4.4;100.0;102460;;;;
2022/11/26 03:20:00;;;;;;;1.9;1.9;;;;;;;4.4;100.0;102460;;;;
2022/11/26 03:21:00;;;;;;;1.9;1.9;;;;;;;4.4;100.0;102460;;;;
2022/11/26 03:22:00;;;;;;;2.1;2.1;;;;;;;4.4;100.0;102460;;;;
2022/11/26 03:23:00;;;;;;;2.1;2.1;;;;;;;4.5;100.0;102460;;;;
2022/11/26 03:24:00;;;;;;;2.1;2.1;;;;;;;4.5;100.0;102460;;;;
2022/11/26 03:25:00;;;;;;;2.1;2.1;;;;;;;4.4;100.0;102460;;;;
2022/11/26 03:26:00;;;;;;;2.1;2.1;;;;;;;4.4;100.0;102460;;;;
2022/11/26 03:27:00;;;;;;;2.1;2.1;;;;;;;4.4;100.0;102460;;;;
2022/11/26 03:28:00;;;;;;;2.1;2.1;;;;;;;4.4;100.0;102460;;;;
2022/11/26 03:29:00;;;;;;;2.1;2.1;;;;;;;4.4;100.0;102470;;;;
2022/11/26 03:30:00;;;;;;;2.1;2.1;;;;;;;4.4;100.0;102470;;;;
2022/11/26 03:31:00;;;;;;;2.1;2.1;;;;;;;4.4;100.0;102470;;;;
2022/11/26 03:32:00;;;;;;;2.1;2.1;;;;;;;4.4;100.0;102470;;;;
2022/11/26 03:33:00;;;;;;;2.1;2.1;;;;;;;4.4;100.0;102480;;;;
2022/11/26 03:34:00;;;;;;;2.1;2.1;;;;;;;4.4;100.0;102480;;;;
2022/11/26 03:35:00;;;;;;;2.1;2.1;;;;;;;4.4;100.0;102480;;;;
2022/11/26 03:36:00;;;;;;;2.1;2.1;;;;;;;4.4;100.0;102480;;;;
2022/11/26 03:37:00;;;;;;;2.1;2.1;;;;;;;4.3;100.0;102480;;;;
2022/11/26 03:38:00;;;;;;;2.1;2.1;;;;;;;4.3;100.0;102480;;;;
2022/11/26 03:39:00;;;;;;;2.1;2.1;;;;;;;4.3;100.0;102480;;;;
2022/11/26 03:40:00;;;;;;;2.1;2.1;;;;;;;4.3;100.0;102480;;;;
2022/11/26 03:41:01;;;;;;;2.1;2.1;;;;;;;4.3;100.0;102490;;;;
2022/11/26 03:42:00;;;;;;;2.1;2.1;;;;;;;4.3;100.0;102490;;;;
2022/11/26 03:43:00;;;;;;;2.1;2.1;;;;;;;4.3;100.0;102490;;;;
2022/11/26 03:44:00;;;;;;;2.1;2.1;;;;;;;4.3;100.0;102490;;;;
2022/11/26 03:45:01;;;;;;;2.1;2.1;;;;;;;4.4;100.0;102480;;;;
2022/11/26 03:46:00;;;;;;;2.1;2.1;;;;;;;4.4;100.0;102480;;;;
2022/11/26 03:47:00;;;;;;;2.1;2.1;;;;;;;4.4;100.0;102480;;;;
2022/11/26 03:48:00;;;;;;;2.1;2.1;;;;;;;4.4;100.0;102480;;;;
2022/11/26 03:49:00;;;;;;;2.1;2.1;;;;;;;4.3;100.0;102480;;;;
2022/11/26 03:50:00;;;;;;;2.1;2.1;;;;;;;4.3;100.0;102480;;;;
2022/11/26 03:51:00;;;;;;;2.1;2.1;;;;;;;4.3;100.0;102480;;;;
2022/11/26 03:52:00;;;;;;;2.1;2.1;;;;;;;4.3;100.0;102480;;;;
2022/11/26 03:53:00;;;;;;;2.1;2.1;;;;;;;4.3;100.0;102480;;;;
2022/11/26 03:54:00;;;;;;;2.1;2.1;;;;;;;4.3;100.0;102480;;;;
2022/11/26 03:55:00;;;;;;;2.1;2.1;;;;;;;4.3;100.0;102490;;;;
2022/11/26 03:56:00;;;;;;;2.1;2.1;;;;;;;4.3;100.0;102490;;;;
2022/11/26 03:57:00;;;;;;;2.1;2.1;;;;;;;4.2;100.0;102490;;;;
2022/11/26 03:58:00;;;;;;;2.1;2.1;;;;;;;4.2;100.0;102490;;;;
2022/11/26 03:59:00;;;;;;;2.1;2.1;;;;;;;4.2;100.0;102490;;;;
2022/11/26 04:00:00;;;;;;;2.1;2.1;;;;;;;4.2;100.0;102490;;;;
2022/11/26 04:01:05;;;;;;;2.1;2.1;;;;;;;4.3;100.0;102490;;;;
2022/11/26 04:02:00;;;;;;;2.1;2.1;;;;;;;4.3;100.0;102490;;;;
2022/11/26 04:03:00;;;;;;;2.1;2.1;;;;;;;4.3;100.0;102490;;;;
2022/11/26 04:04:00;;;;;;;2.1;2.1;;;;;;;4.3;100.0;102490;;;;
2022/11/26 04:05:00;;;;;;;2.1;2.1;;;;;;;4.3;100.0;102490;;;;
2022/11/26 04:06:00;;;;;;;2.1;2.1;;;;;;;4.3;100.0;102490;;;;
2022/11/26 04:07:00;;;;;;;2.1;2.1;;;;;;;4.3;100.0;102500;;;;
2022/11/26 04:08:00;;;;;;;2.1;2.1;;;;;;;4.3;100.0;102500;;;;
2022/11/26 04:09:00;;;;;;;2.1;2.1;;;;;;;4.3;100.0;102500;;;;
2022/11/26 04:10:00;;;;;;;2.1;2.1;;;;;;;4.3;100.0;102500;;;;
2022/11/26 04:11:00;;;;;;;2.1;2.1;;;;;;;4.3;100.0;102500;;;;
2022/11/26 04:12:00;;;;;;;2.1;2.1;;;;;;;4.3;100.0;102500;;;;
2022/11/26 04:13:00;;;;;;;2.1;2.1;;;;;;;4.2;100.0;102490;;;;
2022/11/26 04:14:00;;;;;;;2.1;2.1;;;;;;;4.2;100.0;102490;;;;
2022/11/26 04:15:00;;;;;;;2.1;2.1;;;;;;;4.4;100.0;102490;;;;
2022/11/26 04:16:00;;;;;;;2.1;2.1;;;;;;;4.4;100.0;102490;;;;
2022/11/26 04:17:00;;;;;;;2.1;2.1;;;;;;;4.2;100.0;102490;;;;
2022/11/26 04:18:00;;;;;;;2.1;2.1;;;;;;;4.2;100.0;102490;;;;
2022/11/26 04:19:00;;;;;;;2.1;2.1;;;;;;;4.3;100.0;102500;;;;
2022/11/26 04:20:00;;;;;;;2.1;2.1;;;;;;;4.3;100.0;102500;;;;
2022/11/26 04:21:00;;;;;;;2.1;2.1;;;;;;;4.2;100.0;102500;;;;
2022/11/26 04:22:00;;;;;;;2.4;2.4;;;;;;;4.2;100.0;102500;;;;
2022/11/26 04:23:00;;;;;;;2.4;2.4;;;;;;;4.3;100.0;102510;;;;
2022/11/26 04:24:00;;;;;;;2.4;2.4;;;;;;;4.3;100.0;102510;;;;
2022/11/26 04:25:00;;;;;;;2.4;2.4;;;;;;;4.3;100.0;102510;;;;
2022/11/26 04:26:00;;;;;;;2.4;2.4;;;;;;;4.3;100.0;102510;;;;
2022/11/26 04:27:00;;;;;;;2.4;2.4;;;;;;;4.3;100.0;102510;;;;
2022/11/26 04:28:00;;;;;;;2.4;2.4;;;;;;;4.3;100.0;102510;;;;
2022/11/26 04:29:00;;;;;;;2.4;2.4;;;;;;;4.3;100.0;102510;;;;
2022/11/26 04:30:00;;;;;;;2.4;2.4;;;;;;;4.3;100.0;102510;;;;
2022/11/26 04:31:00;;;;;;;2.4;2.4;;;;;;;4.2;100.0;102510;;;;
2022/11/26 04:32:00;;;;;;;2.4;2.4;;;;;;;4.2;100.0;102510;;;;
2022/11/26 04:33:00;;;;;;;2.4;2.4;;;;;;;4.2;100.0;102510;;;;
2022/11/26 04:34:00;;;;;;;2.4;2.4;;;;;;;4.2;100.0;102510;;;;
2022/11/26 04:35:00;;;;;;;2.4;2.4;;;;;;;4.2;100.0;102520;;;;
2022/11/26 04:36:00;;;;;;;2.4;2.4;;;;;;;4.2;100.0;102520;;;;
2022/11/26 04:37:00;;;;;;;2.4;2.4;;;;;;;4.2;100.0;102520;;;;
2022/11/26 04:38:00;;;;;;;2.4;2.4;;;;;;;4.2;100.0;102520;;;;
2022/11/26 04:39:00;;;;;;;2.4;2.4;;;;;;;4.1;100.0;102520;;;;
2022/11/26 04:40:00;;;;;;;2.4;2.4;;;;;;;4.1;100.0;102520;;;;
2022/11/26 04:41:00;;;;;;;2.4;2.4;;;;;;;4.1;100.0;102520;;;;
2022/11/26 04:42:00;;;;;;;2.7;2.6;;;;;;;4.1;100.0;102520;;;;
2022/11/26 04:43:00;;;;;;;2.7;2.6;;;;;;;4.1;100.0;102520;;;;
2022/11/26 04:44:00;;;;;;;2.7;2.6;;;;;;;4.1;100.0;102520;;;;
2022/11/26 04:45:00;;;;;;;2.7;2.6;;;;;;;4.0;100.0;102530;;;;
2022/11/26 04:46:00;;;;;;;2.7;2.6;;;;;;;4.0;100.0;102530;;;;
2022/11/26 04:47:00;;;;;;;2.7;2.6;;;;;;;4.1;100.0;102520;;;;
2022/11/26 04:48:00;;;;;;;2.7;2.6;;;;;;;4.1;100.0;102520;;;;
2022/11/26 04:49:00;;;;;;;2.7;2.6;;;;;;;4.0;100.0;102520;;;;
2022/11/26 04:50:00;;;;;;;2.7;2.6;;;;;;;4.0;100.0;102520;;;;
2022/11/26 04:51:00;;;;;;;2.7;2.6;;;;;;;4.1;100.0;102520;;;;
2022/11/26 04:52:00;;;;;;;2.7;2.6;;;;;;;4.1;100.0;102520;;;;
2022/11/26 04:53:00;;;;;;;2.7;2.6;;;;;;;4.0;100.0;102520;;;;
2022/11/26 04:54:03;;;;;;;2.7;2.6;;;;;;;4.0;100.0;102520;;;;
2022/11/26 04:55:00;;;;;;;2.7;2.6;;;;;;;4.1;100.0;102510;;;;
2022/11/26 04:56:00;;;;;;;2.7;2.6;;;;;;;4.1;100.0;102510;;;;
2022/11/26 04:57:00;;;;;;;2.7;2.6;;;;;;;4.0;100.0;102520;;;;
2022/11/26 04:58:00;;;;;;;2.7;2.6;;;;;;;4.0;100.0;102520;;;;
2022/11/26 04:59:00;;;;;;;2.7;2.6;;;;;;;4.0;100.0;102520;;;;
2022/11/26 05:00:00;;;;;;;2.7;2.6;;;;;;;4.0;100.0;102520;;;;
2022/11/26 05:01:00;;;;;;;2.7;2.6;;;;;;;3.9;100.0;102520;;;;
2022/11/26 05:02:00;;;;;;;2.1;2.1;;;;;;;3.9;100.0;102520;;;;
2022/11/26 05:03:00;;;;;;;2.1;2.1;;;;;;;4.0;100.0;102520;;;;
2022/11/26 05:04:00;;;;;;;2.1;2.1;;;;;;;4.0;100.0;102520;;;;
2022/11/26 05:05:00;;;;;;;2.1;2.1;;;;;;;3.9;100.0;102520;;;;
2022/11/26 05:06:00;;;;;;;2.1;2.1;;;;;;;3.9;100.0;102520;;;;
2022/11/26 05:07:00;;;;;;;2.1;2.1;;;;;;;3.9;100.0;102520;;;;
2022/11/26 05:08:00;;;;;;;2.1;2.1;;;;;;;3.9;100.0;102520;;;;
2022/11/26 05:09:00;;;;;;;2.1;2.1;;;;;;;4.0;100.0;102530;;;;
2022/11/26 05:10:00;;;;;;;2.1;2.1;;;;;;;4.0;100.0;102530;;;;
2022/11/26 05:11:01;;;;;;;2.1;2.1;;;;;;;4.0;100.0;102530;;;;
2022/11/26 05:12:00;;;;;;;2.1;2.1;;;;;;;4.0;100.0;102530;;;;
2022/11/26 05:13:00;;;;;;;2.1;2.1;;;;;;;4.0;100.0;102530;;;;
2022/11/26 05:14:00;;;;;;;2.1;2.1;;;;;;;4.0;100.0;102530;;;;
2022/11/26 05:15:00;;;;;;;2.1;2.1;;;;;;;4.1;100.0;102530;;;;
2022/11/26 05:16:00;;;;;;;2.1;2.1;;;;;;;4.1;100.0;102530;;;;
2022/11/26 05:17:00;;;;;;;2.1;2.1;;;;;;;4.0;100.0;102530;;;;
2022/11/26 05:18:00;;;;;;;2.1;2.1;;;;;;;4.0;100.0;102530;;;;
2022/11/26 05:19:00;;;;;;;2.1;2.1;;;;;;;3.9;100.0;102530;;;;
2022/11/26 05:20:00;;;;;;;2.1;2.1;;;;;;;3.9;100.0;102530;;;;
2022/11/26 05:21:00;;;;;;;2.1;2.1;;;;;;;4.1;100.0;102530;;;;
2022/11/26 05:22:00;;;;;;;2.0;2.0;;;;;;;4.1;100.0;102530;;;;
2022/11/26 05:23:00;;;;;;;2.0;2.0;;;;;;;4.1;100.0;102540;;;;
2022/11/26 05:24:00;;;;;;;2.0;2.0;;;;;;;4.1;100.0;102540;;;;
2022/11/26 05:25:00;;;;;;;2.0;2.0;;;;;;;4.0;100.0;102540;;;;
2022/11/26 05:26:00;;;;;;;2.0;2.0;;;;;;;4.0;100.0;102540;;;;
2022/11/26 05:27:00;;;;;;;2.0;2.0;;;;;;;4.0;100.0;102550;;;;
2022/11/26 05:28:00;;;;;;;2.0;2.0;;;;;;;4.0;100.0;102550;;;;
2022/11/26 05:29:00;;;;;;;2.0;2.0;;;;;;;3.9;100.0;102540;;;;
2022/11/26 05:30:00;;;;;;;2.0;2.0;;;;;;;3.9;100.0;102540;;;;
2022/11/26 05:31:00;;;;;;;2.0;2.0;;;;;;;3.9;100.0;102540;;;;
2022/11/26 05:32:00;;;;;;;2.0;2.0;;;;;;;3.9;100.0;102540;;;;
2022/11/26 05:33:00;;;;;;;2.0;2.0;;;;;;;3.8;100.0;102540;;;;
2022/11/26 05:34:00;;;;;;;2.0;2.0;;;;;;;3.8;100.0;102540;;;;
2022/11/26 05:35:00;;;;;;;2.0;2.0;;;;;;;4.0;100.0;102540;;;;
2022/11/26 05:36:00;;;;;;;2.0;2.0;;;;;;;4.0;100.0;102540;;;;
2022/11/26 05:37:00;;;;;;;2.0;2.0;;;;;;;4.0;100.0;102540;;;;
2022/11/26 05:38:00;;;;;;;2.0;2.0;;;;;;;4.0;100.0;102540;;;;
2022/11/26 05:39:00;;;;;;;2.0;2.0;;;;;;;4.0;100.0;102550;;;;
2022/11/26 05:40:00;;;;;;;2.0;2.0;;;;;;;4.0;100.0;102550;;;;
2022/11/26 05:41:00;;;;;;;2.4;2.4;;;;;;;4.0;100.0;102550;;;;
2022/11/26 05:42:06;;;;;;;2.4;2.4;;;;;;;4.0;100.0;102550;;;;
2022/11/26 05:43:00;;;;;;;2.4;2.4;;;;;;;4.1;100.0;102550;;;;
2022/11/26 05:44:00;;;;;;;2.4;2.4;;;;;;;4.1;100.0;102550;;;;
2022/11/26 05:45:00;;;;;;;2.4;2.4;;;;;;;4.0;100.0;102540;;;;
2022/11/26 05:46:04;;;;;;;2.4;2.4;;;;;;;4.0;100.0;102540;;;;
2022/11/26 05:47:00;;;;;;;2.4;2.4;;;;;;;3.9;100.0;102550;;;;
2022/11/26 05:48:00;;;;;;;2.4;2.4;;;;;;;3.9;100.0;102550;;;;
2022/11/26 05:49:00;;;;;;;2.4;2.4;;;;;;;4.0;100.0;102550;;;;
2022/11/26 05:50:00;;;;;;;2.4;2.4;;;;;;;4.0;100.0;102550;;;;
2022/11/26 05:51:00;;;;;;;2.4;2.4;;;;;;;4.0;100.0;102550;;;;
2022/11/26 05:52:00;;;;;;;2.4;2.4;;;;;;;4.0;100.0;102550;;;;
2022/11/26 05:53:00;;;;;;;2.4;2.4;;;;;;;3.8;100.0;102550;;;;
2022/11/26 05:54:00;;;;;;;2.4;2.4;;;;;;;3.8;100.0;102550;;;;
2022/11/26 05:55:00;;;;;;;2.4;2.4;;;;;;;3.9;100.0;102550;;;;
2022/11/26 05:56:00;;;;;;;2.4;2.4;;;;;;;3.9;100.0;102550;;;;
2022/11/26 05:57:00;;;;;;;2.4;2.4;;;;;;;3.9;100.0;102550;;;;
2022/11/26 05:58:00;;;;;;;2.4;2.4;;;;;;;3.9;100.0;102550;;;;
2022/11/26 05:59:00;;;;;;;2.4;2.4;;;;;;;3.8;100.0;102560;;;;
2022/11/26 06:00:00;;;;;;;2.4;2.4;;;;;;;3.8;100.0;102560;;;;
2022/11/26 06:01:00;;;;;;;2.8;2.7;;;;;;;3.9;100.0;102560;;;;
2022/11/26 06:02:00;;;;;;;2.8;2.7;;;;;;;3.9;100.0;102560;;;;
2022/11/26 06:03:00;;;;;;;2.8;2.7;;;;;;;3.9;100.0;102560;;;;
2022/11/26 06:04:00;;;;;;;2.8;2.7;;;;;;;3.9;100.0;102560;;;;
2022/11/26 06:05:00;;;;;;;2.8;2.7;;;;;;;3.9;100.0;102570;;;;
2022/11/26 06:06:00;;;;;;;2.8;2.7;;;;;;;3.9;100.0;102570;;;;
2022/11/26 06:07:00;;;;;;;2.8;2.7;;;;;;;3.9;100.0;102570;;;;
2022/11/26 06:08:00;;;;;;;2.8;2.7;;;;;;;3.9;100.0;102570;;;;
2022/11/26 06:09:00;;;;;;;2.8;2.7;;;;;;;3.8;100.0;102580;;;;
2022/11/26 06:10:00;;;;;;;2.8;2.7;;;;;;;3.8;100.0;102580;;;;
2022/11/26 06:11:00;;;;;;;2.8;2.7;;;;;;;3.8;100.0;102580;;;;
2022/11/26 06:12:00;;;;;;;2.8;2.7;;;;;;;3.8;100.0;102580;;;;
2022/11/26 06:13:00;;;;;;;2.8;2.7;;;;;;;3.9;100.0;102580;;;;
2022/11/26 06:14:00;;;;;;;2.8;2.7;;;;;;;3.9;100.0;102580;;;;
2022/11/26 06:15:00;;;;;;;2.8;2.7;;;;;;;3.8;100.0;102580;;;;
2022/11/26 06:16:00;;;;;;;2.8;2.7;;;;;;;3.8;100.0;102580;;;;
2022/11/26 06:17:00;;;;;;;2.8;2.7;;;;;;;3.8;100.0;102580;;;;
2022/11/26 06:18:00;;;;;;;2.8;2.7;;;;;;;3.8;100.0;102580;;;;
2022/11/26 06:19:00;;;;;;;2.8;2.7;;;;;;;3.7;100.0;102580;;;;
2022/11/26 06:20:00;;;;;;;2.8;2.7;;;;;;;3.7;100.0;102580;;;;
2022/11/26 06:21:00;;;;;;;1.9;1.9;;;;;;;3.7;100.0;102580;;;;
2022/11/26 06:22:00;;;;;;;1.9;1.9;;;;;;;3.7;100.0;102580;;;;
2022/11/26 06:23:00;;;;;;;1.9;1.9;;;;;;;3.8;100.0;102580;;;;
2022/11/26 06:24:00;;;;;;;1.9;1.9;;;;;;;3.8;100.0;102580;;;;
2022/11/26 06:25:00;;;;;;;1.9;1.9;;;;;;;3.8;100.0;102580;;;;
2022/11/26 06:26:00;;;;;;;1.9;1.9;;;;;;;3.8;100.0;102580;;;;
2022/11/26 06:27:00;;;;;;;1.9;1.9;;;;;;;3.8;100.0;102580;;;;
2022/11/26 06:28:00;;;;;;;1.9;1.9;;;;;;;3.8;100.0;102580;;;;
2022/11/26 06:29:00;;;;;;;1.9;1.9;;;;;;;3.8;100.0;102590;;;;